Time;durP1;ratioP1;P1;durP2;ratioP2;P2;SDS_P1;SDS_P2;PMS_P1;PMS_P2;Temp;Humidity;BMP_temperature;BMP_pressure;BME280_temperature;BME280_humidity;BME280_pressure;Samples;Min_cycle;Max_cycle;Signal;HPM_P1;HPM_P2
2023/06/24 00:02:08;;;;;;;7.32;2.65;;;24.50;96.70;;;;;;4924929;29;20131;-68
2023/06/24 00:04:36;;;;;;;9.07;2.78;;;24.50;96.70;;;;;;4926892;29;20126;-68
2023/06/24 00:07:06;;;;;;;8.98;3.25;;;24.50;96.70;;;;;;4925312;29;20209;-69
2023/06/24 00:09:34;;;;;;;10.75;2.75;;;24.50;96.70;;;;;;4927810;29;20103;-69
2023/06/24 00:12:03;;;;;;;7.53;2.97;;;24.50;96.70;;;;;;4927057;29;20057;-69
2023/06/24 00:14:31;;;;;;;6.72;2.65;;;24.60;96.70;;;;;;4928049;29;20569;-69
2023/06/24 00:17:01;;;;;;;10.18;3.00;;;24.60;96.70;;;;;;4922705;29;20052;-68
2023/06/24 00:19:31;;;;;;;10.05;3.45;;;24.70;96.70;;;;;;4925943;29;20131;-68
2023/06/24 00:22:08;;;;;;;7.35;2.80;;;24.70;96.70;;;;;;4927594;29;20050;-68
2023/06/24 00:24:36;;;;;;;8.07;2.78;;;24.80;96.70;;;;;;4909782;29;20497;-68
2023/06/24 00:27:05;;;;;;;7.75;3.17;;;24.80;96.70;;;;;;4910792;29;20046;-68
2023/06/24 00:29:36;;;;;;;5.38;2.40;;;24.70;96.70;;;;;;4926101;29;20498;-68
2023/06/24 00:32:07;;;;;;;9.77;3.60;;;24.80;96.70;;;;;;4909793;29;20142;-68
2023/06/24 00:34:35;;;;;;;6.65;2.65;;;24.90;96.70;;;;;;4905514;29;20618;-69
2023/06/24 00:37:04;;;;;;;11.07;3.30;;;24.80;96.70;;;;;;4926133;29;20406;-69
2023/06/24 00:39:32;;;;;;;8.50;2.95;;;24.80;96.70;;;;;;4925761;29;20506;-69
2023/06/24 00:42:00;;;;;;;10.00;2.90;;;24.80;96.70;;;;;;4904852;29;20434;-68
2023/06/24 00:44:29;;;;;;;7.22;2.97;;;24.40;96.70;;;;;;4924125;29;20047;-68
2023/06/24 00:47:02;;;;;;;7.70;3.30;;;24.00;96.70;;;;;;4917636;29;20771;-69
2023/06/24 00:49:32;;;;;;;6.25;2.70;;;23.80;96.70;;;;;;4925519;29;20130;-69
2023/06/24 00:52:03;;;;;;;7.43;2.88;;;23.70;96.70;;;;;;4925453;29;20166;-68
2023/06/24 00:54:32;;;;;;;7.68;3.10;;;24.00;96.70;;;;;;4927093;29;20241;-69
2023/06/24 00:57:00;;;;;;;9.43;3.17;;;24.00;96.70;;;;;;4909087;29;20052;-69
2023/06/24 00:59:42;;;;;;;7.50;3.22;;;24.10;96.70;;;;;;4923365;29;20052;-69
2023/06/24 01:02:11;;;;;;;7.38;2.45;;;24.30;96.70;;;;;;4926786;29;20043;-69
2023/06/24 01:04:43;;;;;;;6.97;2.60;;;24.10;96.70;;;;;;4910294;29;20854;-68
2023/06/24 01:07:11;;;;;;;6.75;2.80;;;24.30;96.70;;;;;;4909300;29;20048;-69
2023/06/24 01:09:39;;;;;;;5.55;2.70;;;24.50;96.70;;;;;;4926364;29;20070;-68
2023/06/24 01:12:08;;;;;;;8.07;2.58;;;24.40;96.70;;;;;;4926736;29;20119;-68
2023/06/24 01:14:37;;;;;;;8.18;2.50;;;24.30;96.70;;;;;;4920944;29;20052;-68
2023/06/24 01:17:12;;;;;;;8.00;3.00;;;24.50;96.70;;;;;;4924102;29;20043;-68
2023/06/24 01:20:09;;;;;;;6.47;2.75;;;24.60;96.70;;;;;;4925718;29;20047;-68
2023/06/24 01:23:07;;;;;;;11.88;3.33;;;24.50;96.70;;;;;;4907361;29;20052;-68
2023/06/24 01:25:53;;;;;;;9.48;2.78;;;24.40;96.70;;;;;;4918661;29;20062;-68
2023/06/24 01:28:40;;;;;;;5.38;2.40;;;24.30;96.70;;;;;;4925575;29;20052;-68
2023/06/24 01:31:26;;;;;;;;;;;24.30;96.70;;;;;;4930622;28;20406;-68
2023/06/24 01:34:01;;;;;;;6.82;2.28;;;24.30;96.70;;;;;;4909212;29;20354;-68
2023/06/24 01:36:36;;;;;;;6.43;2.55;;;24.30;96.70;;;;;;4919135;29;20074;-68
2023/06/24 01:39:08;;;;;;;7.80;2.42;;;24.40;96.70;;;;;;4925908;29;20541;-68
2023/06/24 01:41:41;;;;;;;9.05;2.83;;;24.50;96.70;;;;;;4923000;29;20115;-68
2023/06/24 01:44:13;;;;;;;6.57;2.90;;;24.30;96.70;;;;;;4924273;29;20051;-68
2023/06/24 01:46:46;;;;;;;7.05;2.75;;;24.10;96.70;;;;;;4908275;29;20142;-68
2023/06/24 01:49:18;;;;;;;7.38;2.30;;;24.10;96.70;;;;;;4925070;29;20498;-68
2023/06/24 01:51:47;;;;;;;6.45;2.60;;;24.30;96.70;;;;;;4924866;29;20051;-68
2023/06/24 01:54:22;;;;;;;8.25;3.00;;;24.40;96.70;;;;;;4923957;29;20048;-68
2023/06/24 01:56:52;;;;;;;5.93;2.58;;;24.40;96.70;;;;;;4908543;29;20147;-68
2023/06/24 01:59:22;;;;;;;7.47;2.70;;;24.30;96.70;;;;;;4924731;29;20051;-68
2023/06/24 02:01:52;;;;;;;7.60;3.22;;;24.20;96.70;;;;;;4908091;29;20077;-67
2023/06/24 02:04:24;;;;;;;7.03;2.40;;;24.10;96.70;;;;;;4926403;29;20055;-68
2023/06/24 02:06:54;;;;;;;9.75;3.05;;;24.10;96.70;;;;;;4908225;29;20051;-68
2023/06/24 02:09:24;;;;;;;9.60;3.40;;;24.00;96.70;;;;;;4908681;29;20039;-68
2023/06/24 02:11:53;;;;;;;6.97;2.80;;;23.80;96.70;;;;;;4926695;29;20449;-68
2023/06/24 02:14:21;;;;;;;8.63;3.13;;;23.80;96.70;;;;;;4923480;29;20099;-68
2023/06/24 02:16:56;;;;;;;6.90;3.22;;;23.80;96.70;;;;;;4924802;29;20060;-68
2023/06/24 02:19:28;;;;;;;7.53;3.20;;;23.70;96.70;;;;;;4923397;29;20052;-68
2023/06/24 02:21:59;;;;;;;9.10;3.13;;;23.80;96.70;;;;;;4922716;29;20107;-68
2023/06/24 02:24:28;;;;;;;6.72;3.03;;;23.80;96.70;;;;;;4916369;29;20494;-68
2023/06/24 02:26:58;;;;;;;7.90;3.53;;;23.90;96.70;;;;;;4921204;29;20517;-68
2023/06/24 02:29:27;;;;;;;6.10;3.20;;;23.90;96.70;;;;;;4903249;29;20079;-68
2023/06/24 02:31:56;;;;;;;7.38;3.17;;;23.90;96.70;;;;;;4908117;29;20051;-68
2023/06/24 02:34:27;;;;;;;8.85;3.28;;;24.00;96.70;;;;;;4924160;29;20110;-68
2023/06/24 02:36:55;;;;;;;6.07;2.38;;;24.00;96.70;;;;;;4907500;29;20059;-68
2023/06/24 02:39:23;;;;;;;7.97;3.08;;;24.10;96.70;;;;;;4917901;29;20130;-68
2023/06/24 02:41:52;;;;;;;6.40;2.70;;;24.00;96.70;;;;;;4923758;29;20052;-68
2023/06/24 02:44:19;;;;;;;7.55;2.72;;;24.00;96.70;;;;;;4918776;29;20039;-68
2023/06/24 02:46:49;;;;;;;7.97;3.20;;;23.90;96.70;;;;;;4921481;29;20169;-68
2023/06/24 02:49:18;;;;;;;7.07;2.80;;;23.90;96.70;;;;;;4924050;29;20052;-68
2023/06/24 02:51:48;;;;;;;8.57;2.92;;;24.00;96.70;;;;;;4925461;29;20482;-68
2023/06/24 02:54:17;;;;;;;6.93;3.03;;;24.00;96.70;;;;;;4907508;29;20060;-68
2023/06/24 02:57:09;;;;;;;8.10;3.20;;;23.80;96.70;;;;;;4896945;29;20066;-67
2023/06/24 03:00:07;;;;;;;8.68;2.83;;;23.80;96.70;;;;;;4881068;29;20156;-68
2023/06/24 03:02:54;;;;;;;5.07;2.65;;;23.60;96.70;;;;;;4891763;29;20059;-68
2023/06/24 03:05:25;;;;;;;5.40;3.00;;;23.50;96.70;;;;;;4905016;29;20090;-68
2023/06/24 03:07:57;;;;;;;6.35;2.78;;;23.60;96.70;;;;;;4902940;29;20147;-68
2023/06/24 03:10:25;;;;;;;7.07;2.88;;;23.70;96.70;;;;;;4892695;29;20076;-68
2023/06/24 03:12:54;;;;;;;6.43;3.25;;;23.70;96.70;;;;;;4908251;29;20143;-68
2023/06/24 03:15:29;;;;;;;5.78;3.10;;;23.70;96.70;;;;;;4890662;29;20048;-68
2023/06/24 03:17:57;;;;;;;7.65;2.70;;;23.80;96.70;;;;;;4899844;29;20048;-68
2023/06/24 03:20:26;;;;;;;9.07;3.08;;;23.80;96.70;;;;;;4908764;29;20143;-68
2023/06/24 03:22:57;;;;;;;7.10;2.83;;;23.90;96.70;;;;;;4908692;29;20048;-68
2023/06/24 03:25:26;;;;;;;6.95;2.55;;;23.80;96.70;;;;;;4903254;29;20524;-68
2023/06/24 03:27:54;;;;;;;8.57;2.83;;;23.80;96.70;;;;;;4900947;29;20042;-68
2023/06/24 03:30:22;;;;;;;7.60;2.42;;;23.80;96.70;;;;;;4909871;29;20044;-68
2023/06/24 03:32:51;;;;;;;5.03;2.35;;;23.80;96.70;;;;;;4886606;29;20072;-67
2023/06/24 03:35:19;;;;;;;6.93;2.45;;;23.70;96.70;;;;;;4909145;29;20107;-68
2023/06/24 03:37:49;;;;;;;4.72;2.55;;;23.70;96.70;;;;;;4908077;29;20052;-68
2023/06/24 03:40:18;;;;;;;5.35;2.33;;;23.70;96.70;;;;;;4907315;29;20467;-68
2023/06/24 03:42:46;;;;;;;10.70;3.17;;;23.70;96.70;;;;;;4905387;29;20052;-68
2023/06/24 03:45:14;;;;;;;7.25;2.55;;;23.70;96.70;;;;;;4908811;29;21599;-68
2023/06/24 03:47:43;;;;;;;8.65;2.45;;;23.60;96.70;;;;;;4908982;29;20083;-68
2023/06/24 03:50:11;;;;;;;9.48;2.63;;;23.60;96.70;;;;;;4892081;29;20052;-68
2023/06/24 03:52:39;;;;;;;6.38;2.63;;;23.50;96.70;;;;;;4905392;29;20124;-68
2023/06/24 03:55:08;;;;;;;5.60;2.08;;;23.40;96.70;;;;;;4907780;29;20058;-68
2023/06/24 03:57:37;;;;;;;4.78;2.17;;;23.50;96.70;;;;;;4914649;29;20051;-68
2023/06/24 04:00:13;;;;;;;6.00;2.33;;;23.60;96.70;;;;;;4898719;29;20060;-67
2023/06/24 04:02:42;;;;;;;5.25;2.28;;;23.50;96.70;;;;;;4908841;29;20048;-68
2023/06/24 04:05:10;;;;;;;5.25;2.50;;;23.50;96.70;;;;;;4891784;29;20047;-68
2023/06/24 04:07:39;;;;;;;5.30;2.15;;;23.40;96.70;;;;;;4908458;29;20510;-68
2023/06/24 04:10:08;;;;;;;4.65;2.05;;;23.50;96.70;;;;;;4891571;29;20056;-68
2023/06/24 04:12:40;;;;;;;5.57;2.33;;;23.50;96.70;;;;;;4882169;29;20582;-68
2023/06/24 04:15:09;;;;;;;4.18;2.13;;;23.60;96.70;;;;;;4905357;29;20055;-68
2023/06/24 04:17:38;;;;;;;4.65;1.70;;;23.70;96.70;;;;;;4891177;29;20055;-68
2023/06/24 04:20:10;;;;;;;5.75;2.40;;;23.60;96.70;;;;;;4905345;29;20503;-68
2023/06/24 04:22:40;;;;;;;5.95;2.13;;;23.40;96.70;;;;;;4907028;29;20052;-68
2023/06/24 04:25:09;;;;;;;5.55;2.10;;;23.50;96.70;;;;;;4907949;29;20119;-68
2023/06/24 04:27:49;;;;;;;5.78;2.00;;;23.60;96.70;;;;;;4891596;29;20430;-68
2023/06/24 04:30:17;;;;;;;5.15;2.38;;;23.50;96.70;;;;;;4887581;29;20045;-68
2023/06/24 04:32:45;;;;;;;3.80;2.17;;;23.50;96.70;;;;;;4907587;29;20048;-69
2023/06/24 04:35:14;;;;;;;8.20;2.60;;;23.40;96.70;;;;;;4906565;29;20102;-68
2023/06/24 04:37:41;;;;;;;5.90;2.80;;;23.40;96.70;;;;;;4905611;29;20516;-68
2023/06/24 04:40:10;;;;;;;6.07;2.75;;;23.30;96.70;;;;;;4905793;29;20048;-68
2023/06/24 04:42:38;;;;;;;7.90;2.78;;;23.20;96.70;;;;;;4884092;29;20515;-68
2023/06/24 04:45:08;;;;;;;9.13;3.85;;;23.20;96.70;;;;;;4908018;29;20043;-68
2023/06/24 04:47:36;;;;;;;9.45;4.10;;;23.30;96.70;;;;;;4907999;29;20044;-68
2023/06/24 04:50:06;;;;;;;10.48;5.13;;;23.30;96.70;;;;;;4908322;29;20090;-68
2023/06/24 04:52:34;;;;;;;7.72;4.82;;;23.20;96.70;;;;;;4902710;29;20056;-68
2023/06/24 04:55:03;;;;;;;8.93;4.78;;;23.30;96.70;;;;;;4899935;29;20060;-68
2023/06/24 04:57:52;;;;;;;9.98;4.90;;;23.30;96.70;;;;;;4904458;29;20050;-68
2023/06/24 05:00:40;;;;;;;11.75;5.30;;;23.30;96.70;;;;;;4913096;29;20123;-68
2023/06/24 05:03:56;;;;;;;12.38;4.72;;;23.40;96.70;;;;;;4866861;29;20197;-68
2023/06/24 05:06:24;;;;;;;7.45;4.57;;;23.50;96.70;;;;;;4867401;29;20125;-68
2023/06/24 05:08:53;;;;;;;8.80;4.70;;;23.60;96.70;;;;;;4865576;29;20065;-68
2023/06/24 05:11:21;;;;;;;7.70;4.53;;;23.70;96.70;;;;;;4866775;29;20527;-68
2023/06/24 05:13:49;;;;;;;6.50;4.38;;;23.70;96.70;;;;;;4863879;29;20049;-68
2023/06/24 05:16:18;;;;;;;12.20;5.57;;;23.80;96.70;;;;;;4851111;29;20618;-68
2023/06/24 05:18:47;;;;;;;8.45;4.15;;;23.70;96.70;;;;;;4866768;29;20055;-68
2023/06/24 05:21:16;;;;;;;11.48;4.75;;;23.70;96.70;;;;;;4867152;29;20722;-68
2023/06/24 05:23:44;;;;;;;14.43;4.80;;;23.80;96.70;;;;;;4866535;29;20052;-69
2023/06/24 05:26:12;;;;;;;10.35;4.70;;;23.80;96.70;;;;;;4869580;29;20060;-68
2023/06/24 05:28:41;;;;;;;7.20;4.22;;;23.80;96.70;;;;;;4867781;29;20053;-69
2023/06/24 05:31:09;;;;;;;9.23;4.13;;;23.80;96.70;;;;;;4866715;29;20402;-69
2023/06/24 05:33:38;;;;;;;9.98;3.72;;;23.90;96.70;;;;;;4866414;29;20049;-69
2023/06/24 05:36:08;;;;;;;10.88;4.05;;;23.90;96.70;;;;;;4859545;29;20053;-69
2023/06/24 05:38:36;;;;;;;7.40;3.60;;;23.90;96.70;;;;;;4859453;29;20540;-69
2023/06/24 05:41:05;;;;;;;8.75;4.10;;;23.90;96.70;;;;;;4859426;29;20527;-69
2023/06/24 05:43:33;;;;;;;11.15;4.05;;;24.00;96.70;;;;;;4856267;29;21000;-70
2023/06/24 05:46:01;;;;;;;7.88;4.22;;;24.00;96.70;;;;;;4858168;29;20156;-69
2023/06/24 05:48:29;;;;;;;6.90;3.70;;;24.10;96.70;;;;;;4863518;29;20109;-70
2023/06/24 05:50:59;;;;;;;9.43;4.80;;;24.00;96.70;;;;;;4845919;29;20492;-69
2023/06/24 05:53:27;;;;;;;7.85;3.58;;;24.00;96.70;;;;;;4865461;29;20056;-70
2023/06/24 05:55:55;;;;;;;6.78;3.75;;;24.00;96.70;;;;;;4861257;29;20049;-69
2023/06/24 05:58:23;;;;;;;7.15;3.97;;;23.90;96.70;;;;;;4854334;29;20041;-72
2023/06/24 06:00:52;;;;;;;7.47;3.95;;;24.10;96.70;;;;;;4880923;29;20057;-72
2023/06/24 06:03:20;;;;;;;8.13;4.05;;;24.20;96.70;;;;;;4874130;29;21012;-72
2023/06/24 06:05:48;;;;;;;11.00;4.65;;;24.20;96.70;;;;;;4859307;29;20053;-69
2023/06/24 06:08:18;;;;;;;7.55;3.90;;;24.10;96.70;;;;;;4857699;29;20299;-69
2023/06/24 06:10:46;;;;;;;6.32;3.40;;;24.20;96.70;;;;;;4858858;29;20057;-69
2023/06/24 06:13:15;;;;;;;5.75;3.58;;;24.40;96.70;;;;;;4886765;29;20066;-70
2023/06/24 06:16:02;;;;;;;6.90;3.63;;;24.40;96.70;;;;;;4921697;29;20054;-68
2023/06/24 06:18:32;;;;;;;4.55;2.90;;;24.50;96.70;;;;;;4919394;29;20051;-69
2023/06/24 06:21:00;;;;;;;7.93;3.40;;;24.60;96.70;;;;;;4924344;29;20047;-69
2023/06/24 06:26:22;;;;;;;6.13;3.57;;;24.70;96.70;;;;;;5097729;27;21029;-70
2023/06/24 06:28:53;;;;;;;12.25;4.30;;;24.80;96.70;;;;;;5089907;28;20111;-70
2023/06/24 06:31:21;;;;;;;8.65;4.30;;;24.80;96.70;;;;;;5089995;28;20046;-69
2023/06/24 06:33:49;;;;;;;5.47;2.97;;;24.90;96.70;;;;;;5098662;28;20528;-70
2023/06/24 06:36:18;;;;;;;8.05;4.00;;;25.00;96.70;;;;;;5079883;28;20055;-69
2023/06/24 06:38:49;;;;;;;5.47;3.97;;;25.00;96.70;;;;;;5080719;28;20404;-70
2023/06/24 06:41:23;;;;;;;5.30;3.50;;;25.20;96.70;;;;;;5090180;28;20036;-70
2023/06/24 06:43:54;;;;;;;6.68;3.45;;;25.20;96.70;;;;;;5085155;28;20067;-69
2023/06/24 06:46:23;;;;;;;5.00;3.67;;;25.30;96.70;;;;;;5078291;28;20475;-70
2023/06/24 06:48:51;;;;;;;5.72;3.33;;;25.40;96.70;;;;;;5073972;28;20044;-69
2023/06/24 06:51:20;;;;;;;6.00;3.58;;;25.50;96.70;;;;;;5091710;28;20052;-69
2023/06/24 06:53:48;;;;;;;5.97;3.60;;;25.50;96.70;;;;;;5068626;28;20457;-69
2023/06/24 06:56:22;;;;;;;7.25;5.93;;;25.60;96.70;;;;;;5067455;28;20072;-70
2023/06/24 06:58:50;;;;;;;7.50;3.45;;;25.60;96.70;;;;;;5070336;28;20596;-69
2023/06/24 07:01:20;;;;;;;5.60;3.70;;;25.70;96.70;;;;;;5081269;28;20048;-69
2023/06/24 07:03:50;;;;;;;3.53;2.88;;;25.80;96.70;;;;;;5068340;28;20048;-69
2023/06/24 07:06:19;;;;;;;6.18;3.83;;;25.90;96.70;;;;;;5093334;28;20055;-69
2023/06/24 07:08:47;;;;;;;5.22;3.13;;;25.90;96.70;;;;;;5089688;28;20442;-69
2023/06/24 07:11:16;;;;;;;6.70;3.70;;;26.00;96.70;;;;;;5088683;28;20516;-69
2023/06/24 07:13:45;;;;;;;7.22;3.22;;;26.10;96.70;;;;;;5097060;28;20089;-69
2023/06/24 07:16:15;;;;;;;5.85;5.25;;;26.20;96.70;;;;;;5080186;28;20132;-69
2023/06/24 07:18:45;;;;;;;5.97;3.80;;;26.30;96.70;;;;;;5065798;28;20052;-69
2023/06/24 07:21:13;;;;;;;4.95;3.20;;;26.30;96.70;;;;;;5091829;28;20044;-70
2023/06/24 07:23:42;;;;;;;4.53;3.30;;;26.30;96.70;;;;;;5079536;28;20387;-69
2023/06/24 07:26:10;;;;;;;6.63;2.60;;;26.40;96.70;;;;;;5092924;28;20114;-70
2023/06/24 07:28:38;;;;;;;4.32;2.65;;;26.50;96.70;;;;;;5097939;28;20383;-69
2023/06/24 07:31:06;;;;;;;3.75;2.83;;;26.60;96.70;;;;;;5053733;28;20054;-72
2023/06/24 07:33:34;;;;;;;5.40;2.45;;;26.60;96.70;;;;;;5085539;28;20129;-72
2023/06/24 07:36:05;;;;;;;4.93;2.85;;;26.70;96.70;;;;;;5060818;28;20055;-69
2023/06/24 07:38:33;;;;;;;4.25;2.47;;;26.70;96.70;;;;;;5046755;28;20052;-69
2023/06/24 07:41:01;;;;;;;4.70;2.95;;;26.80;96.70;;;;;;5075075;28;20605;-69
2023/06/24 07:43:29;;;;;;;4.30;2.90;;;26.90;96.70;;;;;;5075605;28;20124;-69
2023/06/24 07:45:57;;;;;;;7.18;2.65;;;27.00;96.70;;;;;;5051818;28;20810;-70
2023/06/24 07:48:25;;;;;;;3.25;2.50;;;27.10;96.70;;;;;;5042319;28;20134;-69
2023/06/24 07:50:53;;;;;;;8.15;2.60;;;27.20;96.70;;;;;;5078694;28;20102;-70
2023/06/24 07:53:23;;;;;;;5.88;2.58;;;27.30;96.70;;;;;;5055525;28;20067;-69
2023/06/24 07:55:51;;;;;;;7.53;2.70;;;27.30;96.70;;;;;;5071032;28;20040;-69
2023/06/24 08:02:06;;;;;;;6.65;2.67;;;27.30;96.70;;;;;;5059376;28;20048;-72
2023/06/24 08:04:34;;;;;;;5.07;2.92;;;27.50;96.70;;;;;;5046835;28;20501;-73
2023/06/24 08:07:04;;;;;;;3.22;2.20;;;27.60;96.70;;;;;;5047322;28;20041;-73
2023/06/24 08:09:34;;;;;;;4.47;3.00;;;27.60;96.70;;;;;;5054873;28;20048;-73
2023/06/24 08:12:14;;;;;;;5.55;2.50;;;27.70;96.70;;;;;;5049225;28;20649;-73
2023/06/24 08:14:42;;;;;;;3.35;2.58;;;27.70;96.70;;;;;;5075061;28;20132;-73
2023/06/24 08:17:10;;;;;;;3.13;2.40;;;27.70;96.70;;;;;;5080317;28;20040;-69
2023/06/24 08:19:39;;;;;;;5.18;2.50;;;27.60;96.70;;;;;;5080355;28;20044;-69
2023/06/24 08:22:09;;;;;;;3.88;2.50;;;27.70;96.70;;;;;;5075076;28;20090;-70
2023/06/24 08:24:40;;;;;;;4.55;2.92;;;27.70;96.70;;;;;;5066715;28;20076;-69
2023/06/24 08:27:09;;;;;;;6.45;2.50;;;27.70;96.70;;;;;;5083615;28;20046;-69
2023/06/24 08:29:37;;;;;;;3.90;2.20;;;27.70;96.70;;;;;;5055783;28;20044;-70
2023/06/24 08:32:06;;;;;;;3.20;2.38;;;27.80;96.70;;;;;;5063251;28;20394;-69
2023/06/24 08:34:35;;;;;;;3.70;2.47;;;27.90;96.70;;;;;;5066519;28;20056;-68
2023/06/24 08:37:10;;;;;;;8.65;2.60;;;27.90;96.70;;;;;;5074808;28;20043;-69
2023/06/24 08:39:39;;;;;;;4.47;2.45;;;28.00;96.70;;;;;;5051264;28;20051;-70
2023/06/24 08:42:08;;;;;;;11.18;2.53;;;28.10;96.70;;;;;;5046154;28;20049;-70
2023/06/24 08:44:36;;;;;;;3.22;2.35;;;28.10;96.70;;;;;;5064609;28;20041;-70
2023/06/24 08:47:04;;;;;;;7.47;2.55;;;28.20;96.70;;;;;;5064314;28;20444;-70
2023/06/24 08:49:55;;;;;;;5.22;2.33;;;28.20;96.70;;;;;;5060623;28;20072;-70
2023/06/24 08:52:29;;;;;;;7.15;2.80;;;28.30;96.70;;;;;;4968395;28;20714;-70
2023/06/24 08:55:00;;;;;;;3.00;2.40;;;28.30;96.70;;;;;;4989663;28;20575;-70
2023/06/24 08:57:28;;;;;;;3.17;1.98;;;28.40;96.70;;;;;;4982107;28;20051;-69
2023/06/24 08:59:57;;;;;;;3.25;2.30;;;28.50;96.70;;;;;;4982179;28;20225;-68
2023/06/24 09:02:25;;;;;;;3.65;2.17;;;28.50;96.70;;;;;;4996218;28;20668;-69
2023/06/24 09:04:53;;;;;;;3.42;2.08;;;28.50;96.70;;;;;;4991573;28;20058;-68
2023/06/24 09:07:27;;;;;;;2.97;2.08;;;28.40;96.70;;;;;;4973936;28;20064;-69
2023/06/24 09:09:56;;;;;;;2.83;2.47;;;28.40;96.70;;;;;;4981508;28;20051;-69
2023/06/24 09:12:26;;;;;;;2.83;2.00;;;28.40;96.70;;;;;;4979409;28;20416;-69
2023/06/24 09:14:54;;;;;;;3.38;2.20;;;28.50;96.70;;;;;;4995035;28;20141;-68
2023/06/24 09:17:22;;;;;;;4.40;2.17;;;28.60;96.70;;;;;;5052800;28;20068;-69
2023/06/24 09:19:51;;;;;;;3.30;2.58;;;28.80;96.70;;;;;;5071098;28;20048;-69
2023/06/24 09:22:21;;;;;;;4.05;2.65;;;28.90;96.70;;;;;;5071936;28;20055;-69
2023/06/24 09:25:09;;;;;;;2.67;2.00;;;29.00;96.70;;;;;;5059933;28;20256;-69
2023/06/24 09:27:38;;;;;;;5.45;2.13;;;29.10;96.70;;;;;;5063786;28;20040;-69
2023/06/24 09:30:19;;;;;;;3.35;2.28;;;29.10;96.70;;;;;;5071070;28;20067;-69
2023/06/24 09:32:47;;;;;;;5.10;2.80;;;29.00;96.70;;;;;;5045491;28;20048;-69
2023/06/24 09:35:19;;;;;;;3.95;2.17;;;29.10;96.70;;;;;;5045207;28;20076;-69
2023/06/24 09:37:51;;;;;;;3.15;2.20;;;29.00;96.70;;;;;;5071630;28;20079;-69
2023/06/24 09:40:19;;;;;;;3.05;1.95;;;28.90;96.70;;;;;;5054466;28;20102;-69
2023/06/24 09:42:54;;;;;;;4.47;2.10;;;28.90;96.70;;;;;;5073197;28;20052;-72
2023/06/24 09:45:24;;;;;;;4.25;2.05;;;29.20;96.70;;;;;;5056485;28;20081;-71
2023/06/24 09:47:52;;;;;;;2.55;1.67;;;29.10;96.70;;;;;;5033732;28;20603;-72
2023/06/24 09:50:21;;;;;;;3.08;2.10;;;29.20;96.70;;;;;;5062013;28;20562;-72
2023/06/24 09:52:50;;;;;;;2.92;2.00;;;29.40;96.70;;;;;;5045571;28;20036;-72
2023/06/24 09:55:19;;;;;;;3.08;1.90;;;29.60;96.70;;;;;;5056674;28;20044;-70
2023/06/24 09:57:50;;;;;;;4.68;2.08;;;29.50;96.70;;;;;;5068059;28;20040;-70
2023/06/24 10:00:21;;;;;;;2.63;1.90;;;29.40;96.70;;;;;;5045656;28;20049;-69
2023/06/24 10:02:49;;;;;;;2.35;1.83;;;29.30;96.70;;;;;;5062547;28;20048;-69
2023/06/24 10:05:17;;;;;;;3.83;2.13;;;29.40;96.70;;;;;;5064639;28;20048;-71
2023/06/24 10:07:45;;;;;;;2.80;1.83;;;29.50;96.70;;;;;;5050937;28;20055;-69
2023/06/24 10:10:13;;;;;;;3.47;2.03;;;29.50;96.70;;;;;;5076626;28;20580;-69
2023/06/24 10:12:41;;;;;;;4.55;1.67;;;29.50;96.70;;;;;;5069504;28;20040;-69
2023/06/24 10:15:10;;;;;;;3.85;2.00;;;29.60;96.70;;;;;;5048105;28;20044;-69
2023/06/24 10:17:39;;;;;;;3.75;1.80;;;29.60;96.70;;;;;;5044045;28;20060;-69
2023/06/24 10:20:08;;;;;;;3.85;1.85;;;29.60;96.70;;;;;;5079444;28;20045;-69
2023/06/24 10:22:36;;;;;;;2.95;2.25;;;29.70;96.70;;;;;;5060522;28;20571;-69
2023/06/24 10:25:07;;;;;;;3.35;2.20;;;29.60;96.70;;;;;;5050145;28;20056;-69
2023/06/24 10:27:44;;;;;;;4.18;1.98;;;29.60;96.70;;;;;;5063116;28;20133;-68
2023/06/24 10:30:23;;;;;;;3.25;1.63;;;29.70;96.70;;;;;;5079764;28;20127;-69
2023/06/24 10:32:56;;;;;;;2.70;1.70;;;29.80;96.70;;;;;;5049697;28;20043;-69
2023/06/24 10:35:25;;;;;;;2.72;1.90;;;29.90;96.70;;;;;;5063723;28;20421;-69
2023/06/24 10:37:58;;;;;;;2.13;1.88;;;29.90;96.70;;;;;;5055625;28;20042;-69
2023/06/24 10:40:37;;;;;;;3.55;2.08;;;30.00;96.70;;;;;;5053719;28;20135;-71
2023/06/24 10:43:29;;;;;;;4.10;2.15;;;30.10;96.70;;;;;;5078110;28;20079;-70
2023/06/24 10:45:58;;;;;;;4.28;2.42;;;30.10;96.70;;;;;;5059948;28;20058;-71
2023/06/24 10:48:52;;;;;;;4.10;2.00;;;30.20;96.70;;;;;;5044161;28;20056;-71
2023/06/24 10:51:22;;;;;;;3.97;2.15;;;30.40;96.70;;;;;;5055718;28;20055;-71
2023/06/24 10:53:52;;;;;;;2.58;1.85;;;30.40;96.70;;;;;;5064972;28;20047;-72
2023/06/24 10:56:20;;;;;;;3.80;1.95;;;30.30;96.70;;;;;;5062993;28;20040;-72
2023/06/24 10:58:56;;;;;;;3.78;3.25;;;30.50;96.70;;;;;;5061951;28;20383;-74
2023/06/24 11:01:23;;;;;;;;;;;30.50;96.70;;;;;;5069752;28;20041;-73
2023/06/24 11:03:53;;;;;;;2.95;1.98;;;30.70;96.70;;;;;;5043409;28;20412;-71
2023/06/24 11:06:21;;;;;;;3.22;2.00;;;30.80;96.70;;;;;;5043246;28;20141;-70
2023/06/24 11:08:48;;;;;;;3.95;2.28;;;31.00;96.70;;;;;;5062708;28;20147;-71
2023/06/24 11:11:21;;;;;;;2.13;1.73;;;30.90;96.70;;;;;;5047214;28;20048;-71
2023/06/24 11:13:49;;;;;;;3.28;2.20;;;30.80;96.70;;;;;;5056051;28;20047;-70
2023/06/24 11:16:21;;;;;;;2.60;1.83;;;30.90;96.70;;;;;;5047728;28;20051;-70
2023/06/24 11:18:49;;;;;;;4.35;1.67;;;31.00;96.70;;;;;;5063285;28;20044;-70
2023/06/24 11:21:18;;;;;;;3.17;1.92;;;31.10;96.70;;;;;;5066107;28;20040;-71
2023/06/24 11:23:46;;;;;;;3.58;2.05;;;31.20;96.70;;;;;;5055619;28;20053;-73
2023/06/24 11:26:15;;;;;;;4.32;2.20;;;31.20;96.70;;;;;;5067616;28;20056;-73
2023/06/24 11:28:43;;;;;;;3.30;1.80;;;31.30;96.70;;;;;;5066027;28;20591;-73
2023/06/24 11:31:12;;;;;;;4.40;1.90;;;31.30;96.70;;;;;;5075207;28;20106;-72
2023/06/24 11:33:40;;;;;;;3.72;2.15;;;31.10;96.70;;;;;;5061508;28;20055;-72
2023/06/24 11:36:10;;;;;;;3.15;1.80;;;31.20;96.70;;;;;;5065929;28;20043;-72
2023/06/24 11:38:39;;;;;;;2.58;2.08;;;31.30;96.70;;;;;;5047470;28;20044;-72
2023/06/24 11:41:07;;;;;;;3.63;1.75;;;31.40;96.70;;;;;;5071652;28;20068;-72
2023/06/24 11:43:35;;;;;;;3.17;1.90;;;31.70;96.70;;;;;;5068231;28;20045;-72
2023/06/24 11:46:02;;;;;;;6.13;4.20;;;31.80;96.70;;;;;;5054854;28;20044;-72
2023/06/24 11:48:38;;;;;;;4.78;2.20;;;31.90;96.70;;;;;;5080774;28;20055;-71
2023/06/24 11:51:13;;;;;;;3.03;1.95;;;31.70;96.70;;;;;;5066394;28;20052;-71
2023/06/24 11:53:44;;;;;;;4.38;2.00;;;31.60;96.70;;;;;;5050197;28;20102;-71
2023/06/24 11:56:12;;;;;;;4.30;2.00;;;31.90;96.70;;;;;;5051322;28;20048;-70
2023/06/24 11:58:39;;;;;;;2.08;1.67;;;31.90;96.70;;;;;;5067840;28;20291;-71
2023/06/24 12:01:08;;;;;;;1.92;1.30;;;32.00;96.70;;;;;;5057040;28;20048;-71
2023/06/24 12:03:36;;;;;;;2.25;1.70;;;32.00;96.70;;;;;;5072504;28;20066;-71
2023/06/24 12:06:04;;;;;;;3.03;1.73;;;31.90;96.70;;;;;;5042322;28;20052;-72
2023/06/24 12:08:32;;;;;;;2.58;1.60;;;32.10;96.70;;;;;;5066074;28;20403;-72
2023/06/24 12:11:19;;;;;;;5.45;1.60;;;32.20;96.70;;;;;;5061595;28;20076;-72
2023/06/24 12:13:47;;;;;;;2.15;1.67;;;32.50;96.70;;;;;;5060149;28;20967;-72
2023/06/24 12:16:15;;;;;;;6.55;2.50;;;32.50;96.70;;;;;;5068906;28;20044;-72
2023/06/24 12:18:43;;;;;;;2.97;1.88;;;32.30;96.70;;;;;;5083058;28;20042;-72
2023/06/24 12:21:11;;;;;;;2.35;2.00;;;32.20;96.70;;;;;;5083301;28;20154;-72
2023/06/24 12:23:39;;;;;;;3.67;1.90;;;32.10;96.70;;;;;;5059482;28;20136;-72
2023/06/24 12:26:07;;;;;;;2.05;1.70;;;32.20;96.70;;;;;;5066332;28;20064;-72
2023/06/24 12:28:36;;;;;;;2.30;1.60;;;32.30;96.70;;;;;;5061497;28;20127;-72
2023/06/24 12:31:05;;;;;;;1.88;1.77;;;32.30;96.70;;;;;;5046100;28;20039;-72
2023/06/24 12:33:33;;;;;;;2.20;2.00;;;32.30;96.70;;;;;;5070764;28;20043;-72
2023/06/24 12:36:01;;;;;;;4.05;1.90;;;32.50;96.70;;;;;;5056988;28;20485;-72
2023/06/24 12:38:28;;;;;;;2.92;1.90;;;32.60;96.70;;;;;;5063793;28;20037;-72
2023/06/24 12:40:57;;;;;;;2.65;1.63;;;32.60;96.70;;;;;;5047735;28;20075;-73
2023/06/24 12:43:25;;;;;;;2.33;1.70;;;32.60;96.70;;;;;;5064484;28;20036;-72
2023/06/24 12:45:55;;;;;;;2.83;1.60;;;32.80;96.70;;;;;;5079385;28;20048;-72
2023/06/24 12:48:23;;;;;;;3.50;1.73;;;32.60;96.70;;;;;;5076215;28;20044;-70
2023/06/24 12:50:53;;;;;;;2.35;1.80;;;32.60;96.70;;;;;;5056367;28;20068;-72
2023/06/24 12:53:22;;;;;;;2.75;2.13;;;32.60;96.70;;;;;;5047118;28;20052;-72
2023/06/24 12:55:50;;;;;;;2.75;1.40;;;32.90;96.70;;;;;;5075907;28;20119;-71
2023/06/24 12:58:20;;;;;;;3.47;1.88;;;32.90;96.70;;;;;;5078157;28;20076;-71
2023/06/24 13:00:48;;;;;;;3.63;1.70;;;33.10;96.70;;;;;;5072670;28;20068;-71
2023/06/24 13:03:18;;;;;;;2.90;1.52;;;33.20;96.70;;;;;;5037026;28;20426;-71
2023/06/24 13:05:47;;;;;;;2.78;1.90;;;33.30;96.70;;;;;;5073085;28;20041;-71
2023/06/24 13:08:15;;;;;;;2.22;1.52;;;33.50;96.70;;;;;;5053511;28;20098;-71
2023/06/24 13:10:43;;;;;;;2.10;1.77;;;33.70;96.70;;;;;;5058764;28;20439;-71